createdAt,value
2018-09-23T00:01:33.661Z,80.89
2018-09-23T00:04:02.509Z,80.87
2018-09-23T00:06:31.373Z,80.90
2018-09-23T00:09:00.188Z,81.04
2018-09-23T00:11:29.132Z,81.70
2018-09-23T00:13:57.954Z,81.55
2018-09-23T00:16:26.828Z,81.35
2018-09-23T00:18:55.648Z,81.65
2018-09-23T00:21:24.503Z,81.49
2018-09-23T00:23:53.389Z,81.39
2018-09-23T00:26:22.271Z,81.17
2018-09-23T00:28:51.124Z,80.90
2018-09-23T00:31:19.956Z,81.00
2018-09-23T00:33:48.832Z,81.07
2018-09-23T00:36:17.663Z,81.24
2018-09-23T00:38:46.507Z,81.09
2018-09-23T00:41:15.337Z,81.23
2018-09-23T00:43:44.179Z,81.69
2018-09-23T00:46:13.017Z,82.18
2018-09-23T00:48:41.903Z,80.52
2018-09-23T00:51:10.738Z,81.28
2018-09-23T00:53:39.581Z,81.30
2018-09-23T00:56:08.480Z,81.41
2018-09-23T00:58:37.343Z,81.20
2018-09-23T01:01:06.242Z,81.24
2018-09-23T01:03:35.096Z,81.45
2018-09-23T01:06:03.935Z,81.03
2018-09-23T01:08:32.810Z,81.42
2018-09-23T01:11:01.636Z,81.59
2018-09-23T01:13:30.472Z,81.34
2018-09-23T01:15:59.313Z,80.91
2018-09-23T01:18:28.146Z,80.50
2018-09-23T01:20:56.996Z,80.16
2018-09-23T01:23:25.828Z,79.59
2018-09-23T01:25:54.680Z,80.62
2018-09-23T01:28:23.539Z,80.76
2018-09-23T01:30:52.381Z,80.94
2018-09-23T01:33:21.201Z,80.98
2018-09-23T01:35:50.061Z,80.97
2018-09-23T01:38:18.927Z,81.02
2018-09-23T01:40:47.779Z,79.81
2018-09-23T01:43:16.594Z,80.69
2018-09-23T01:45:45.466Z,80.79
2018-09-23T01:48:14.335Z,81.14
2018-09-23T01:50:43.214Z,81.20
2018-09-23T01:53:12.070Z,81.46
2018-09-23T01:55:40.931Z,81.74
2018-09-23T01:58:09.790Z,81.81
2018-09-23T02:00:38.697Z,81.62
2018-09-23T02:03:07.528Z,81.79
2018-09-23T02:05:36.381Z,81.92
2018-09-23T02:08:05.268Z,81.85
2018-09-23T02:10:34.147Z,82.09
2018-09-23T02:13:02.983Z,81.63
2018-09-23T02:15:31.854Z,81.59
2018-09-23T02:18:00.707Z,81.61
2018-09-23T02:20:29.542Z,81.46
2018-09-23T02:22:58.394Z,81.34
2018-09-23T02:25:27.250Z,81.72
2018-09-23T02:27:56.211Z,81.81
2018-09-23T02:30:25.008Z,81.54
2018-09-23T02:32:53.860Z,81.05
2018-09-23T02:35:23.319Z,80.82
2018-09-23T02:37:53.741Z,81.29
2018-09-23T02:40:22.696Z,81.57
2018-09-23T02:42:51.597Z,81.93
2018-09-23T02:45:20.500Z,82.00
2018-09-23T02:47:49.348Z,82.04
2018-09-23T02:50:18.233Z,81.88
2018-09-23T02:52:47.059Z,81.95
2018-09-23T02:55:15.989Z,81.54
2018-09-23T02:57:44.767Z,81.40
2018-09-23T03:00:13.630Z,81.59
2018-09-23T03:02:42.524Z,81.69
2018-09-23T03:05:11.361Z,80.72
2018-09-23T03:07:40.201Z,81.36
2018-09-23T03:10:09.062Z,81.30
2018-09-23T03:12:37.926Z,81.28
2018-09-23T03:15:06.768Z,81.08
2018-09-23T03:17:35.622Z,80.80
2018-09-23T03:20:04.508Z,80.77
2018-09-23T03:22:33.377Z,80.82
2018-09-23T03:25:02.200Z,80.93
2018-09-23T03:27:31.026Z,80.95
2018-09-23T03:29:59.880Z,81.33
2018-09-23T03:32:28.724Z,81.65
2018-09-23T03:34:57.583Z,81.37
2018-09-23T03:37:26.425Z,81.44
2018-09-23T03:39:55.286Z,81.79
2018-09-23T03:42:24.124Z,81.89
2018-09-23T03:44:52.963Z,81.60
2018-09-23T03:47:21.809Z,81.51
2018-09-23T03:49:50.688Z,81.21
2018-09-23T03:52:19.508Z,80.89
2018-09-23T03:54:48.363Z,80.67
2018-09-23T03:57:17.208Z,80.99
2018-09-23T03:59:46.063Z,81.17
2018-09-23T04:02:14.947Z,81.30
2018-09-23T04:04:43.795Z,81.47
2018-09-23T04:07:12.656Z,80.48
2018-09-23T04:09:41.535Z,81.53
2018-09-23T04:12:10.401Z,81.71
2018-09-23T04:14:39.226Z,81.76
2018-09-23T04:17:08.070Z,81.90
2018-09-23T04:19:36.981Z,81.63
2018-09-23T04:22:05.801Z,79.84
2018-09-23T04:24:34.630Z,80.91
2018-09-23T04:27:03.503Z,80.56
2018-09-23T04:29:32.344Z,80.43
2018-09-23T04:32:01.198Z,80.31
2018-09-23T04:34:30.038Z,80.76
2018-09-23T04:36:58.885Z,81.14
2018-09-23T04:39:27.741Z,80.91
2018-09-23T04:41:56.601Z,81.01
2018-09-23T04:44:25.439Z,80.88
2018-09-23T04:46:54.266Z,80.95
2018-09-23T04:49:23.116Z,81.45
2018-09-23T04:51:51.982Z,80.07
2018-09-23T04:54:20.854Z,81.28
2018-09-23T04:56:49.699Z,81.39
2018-09-23T04:59:18.528Z,81.60
2018-09-23T05:01:47.369Z,81.57
2018-09-23T05:04:16.229Z,81.58
2018-09-23T05:06:45.091Z,81.48
2018-09-23T05:09:13.942Z,81.24
2018-09-23T05:11:42.803Z,81.21
2018-09-23T05:14:11.629Z,80.83
2018-09-23T05:16:40.484Z,80.49
2018-09-23T05:19:09.316Z,80.43
2018-09-23T05:21:38.142Z,80.36
2018-09-23T05:24:07.000Z,80.42
2018-09-23T05:26:35.877Z,81.07
2018-09-23T05:29:04.770Z,81.45
2018-09-23T05:31:33.604Z,81.84
2018-09-23T05:34:02.435Z,82.04
2018-09-23T05:36:31.270Z,82.12
2018-09-23T05:39:00.130Z,81.92
2018-09-23T05:41:28.964Z,81.58
2018-09-23T05:43:57.824Z,81.68
2018-09-23T05:46:26.634Z,81.37
2018-09-23T05:48:55.461Z,81.62
2018-09-23T05:51:24.295Z,81.43
2018-09-23T05:53:53.137Z,81.35
2018-09-23T05:56:21.987Z,81.10
2018-09-23T05:58:50.822Z,80.91
2018-09-23T06:01:19.639Z,81.09
2018-09-23T06:03:48.474Z,80.69
2018-09-23T06:06:17.293Z,80.95
2018-09-23T06:08:46.216Z,81.35
2018-09-23T06:11:15.046Z,81.03
2018-09-23T06:13:43.852Z,81.45
2018-09-23T06:16:12.703Z,81.81
2018-09-23T06:18:41.604Z,81.74
2018-09-23T06:21:10.451Z,81.91
2018-09-23T06:23:39.716Z,81.68
2018-09-23T06:26:08.565Z,81.59
2018-09-23T06:28:37.460Z,81.42
2018-09-23T06:31:06.481Z,80.19
2018-09-23T06:33:35.319Z,79.58
2018-09-23T06:36:04.193Z,80.82
2018-09-23T06:38:33.112Z,80.96
2018-09-23T06:41:01.958Z,80.72
2018-09-23T06:43:30.794Z,80.62
2018-09-23T06:45:59.620Z,80.43
2018-09-23T06:48:28.473Z,78.66
2018-09-23T06:50:57.359Z,80.21
2018-09-23T06:53:26.147Z,80.39
2018-09-23T06:55:54.997Z,80.26
2018-09-23T06:58:24.184Z,80.20
2018-09-23T07:00:53.045Z,80.11
2018-09-23T07:03:21.944Z,80.40
2018-09-23T07:05:50.781Z,80.93
2018-09-23T07:08:19.656Z,80.32
2018-09-23T07:10:48.481Z,80.25
2018-09-23T07:13:17.371Z,80.27
2018-09-23T07:15:46.259Z,80.75
2018-09-23T07:18:15.232Z,80.37
2018-09-23T07:20:43.964Z,80.54
2018-09-23T07:23:12.820Z,80.84
2018-09-23T07:25:41.673Z,79.89
2018-09-23T07:28:10.505Z,80.09
2018-09-23T07:30:39.384Z,79.92
2018-09-23T07:33:08.246Z,79.69
2018-09-23T07:35:37.064Z,80.33
2018-09-23T07:38:05.910Z,80.14
2018-09-23T07:40:34.761Z,79.94
2018-09-23T07:43:03.597Z,80.48
2018-09-23T07:45:32.496Z,80.78
2018-09-23T07:48:01.330Z,80.01
2018-09-23T07:50:30.272Z,79.85
2018-09-23T07:52:59.155Z,80.21
2018-09-23T07:55:28.013Z,80.08
2018-09-23T07:57:56.849Z,80.14
2018-09-23T08:00:25.708Z,79.99
2018-09-23T08:02:54.567Z,80.75
2018-09-23T08:05:23.423Z,80.44
2018-09-23T08:07:52.270Z,80.52
2018-09-23T08:10:21.129Z,80.31
2018-09-23T08:12:50.299Z,80.05
2018-09-23T08:15:18.781Z,80.11
2018-09-23T08:17:47.645Z,80.53
2018-09-23T08:20:16.667Z,80.04
2018-09-23T08:22:45.359Z,79.67
2018-09-23T08:25:14.310Z,79.86
2018-09-23T08:27:43.097Z,79.76
2018-09-23T08:30:11.965Z,80.16
2018-09-23T08:32:40.793Z,80.31
2018-09-23T08:35:09.630Z,80.00
2018-09-23T08:37:38.468Z,79.87
2018-09-23T08:40:07.371Z,79.96
2018-09-23T08:42:36.157Z,80.31
2018-09-23T08:45:05.016Z,80.39
2018-09-23T08:47:33.863Z,80.12
2018-09-23T08:50:02.722Z,80.10
2018-09-23T08:52:31.580Z,79.96
2018-09-23T08:55:00.420Z,80.49
2018-09-23T08:57:29.257Z,79.39
2018-09-23T08:59:58.111Z,80.57
2018-09-23T09:02:26.951Z,80.38
2018-09-23T09:04:55.815Z,80.50
2018-09-23T09:07:24.637Z,80.55
2018-09-23T09:09:53.541Z,81.05
2018-09-23T09:12:22.417Z,79.93
2018-09-23T09:14:51.287Z,80.61
2018-09-23T09:17:20.101Z,80.50
2018-09-23T09:19:48.975Z,80.07
2018-09-23T09:22:17.882Z,80.15
2018-09-23T09:24:46.723Z,80.38
2018-09-23T09:27:15.590Z,79.98
2018-09-23T09:29:44.435Z,79.90
2018-09-23T09:32:13.302Z,79.83
2018-09-23T09:34:42.171Z,80.07
2018-09-23T09:37:11.012Z,80.22
2018-09-23T09:39:39.897Z,80.04
2018-09-23T09:42:08.801Z,80.28
2018-09-23T09:44:37.644Z,80.29
2018-09-23T09:47:07.628Z,80.02
2018-09-23T09:49:36.498Z,79.82
2018-09-23T09:52:05.640Z,79.87
2018-09-23T09:54:34.488Z,80.09
2018-09-23T09:57:03.377Z,80.22
2018-09-23T09:59:32.255Z,80.11
2018-09-23T10:02:01.098Z,79.87
2018-09-23T10:04:29.908Z,78.79
2018-09-23T10:06:58.784Z,79.86
2018-09-23T10:09:27.598Z,79.46
2018-09-23T10:11:56.403Z,79.40
2018-09-23T10:14:25.230Z,79.53
2018-09-23T10:16:54.059Z,79.58
2018-09-23T10:19:22.908Z,79.88
2018-09-23T10:21:51.818Z,80.12
2018-09-23T10:24:20.643Z,80.37
2018-09-23T10:26:49.466Z,80.09
2018-09-23T10:29:18.318Z,80.19
2018-09-23T10:31:47.318Z,80.53
2018-09-23T10:34:16.013Z,81.17
2018-09-23T10:36:44.859Z,81.15
2018-09-23T10:39:13.689Z,81.64
2018-09-23T10:41:42.530Z,81.19
2018-09-23T10:44:11.369Z,80.77
2018-09-23T10:46:40.228Z,80.36
2018-09-23T10:49:09.095Z,80.20
2018-09-23T10:51:37.932Z,80.01
2018-09-23T10:54:06.842Z,79.76
2018-09-23T10:56:35.707Z,79.71
2018-09-23T10:59:04.598Z,79.71
2018-09-23T11:01:33.432Z,80.16
2018-09-23T11:04:02.481Z,80.29
2018-09-23T11:06:31.186Z,80.09
2018-09-23T11:09:00.030Z,80.70
2018-09-23T11:11:28.886Z,79.89
2018-09-23T11:13:57.738Z,80.60
2018-09-23T11:16:26.565Z,80.57
2018-09-23T11:18:55.441Z,80.38
2018-09-23T11:21:24.443Z,80.80
2018-09-23T11:23:53.309Z,80.59
2018-09-23T11:26:22.188Z,80.33
2018-09-23T11:28:51.023Z,80.10
2018-09-23T11:31:19.896Z,80.00
2018-09-23T11:33:48.746Z,79.67
2018-09-23T11:36:17.599Z,79.69
2018-09-23T11:38:46.445Z,79.72
2018-09-23T11:41:15.289Z,79.44
2018-09-23T11:43:44.115Z,79.98
2018-09-23T11:46:12.959Z,79.95
2018-09-23T11:48:41.808Z,80.42
2018-09-23T11:51:10.616Z,80.28
2018-09-23T11:53:39.485Z,79.74
2018-09-23T11:56:08.321Z,79.62
2018-09-23T11:58:37.173Z,80.38
2018-09-23T12:01:06.079Z,80.29
2018-09-23T12:03:34.935Z,80.26
2018-09-23T12:06:03.934Z,79.30
2018-09-23T12:08:32.733Z,80.19
2018-09-23T12:11:01.704Z,80.18
2018-09-23T12:13:30.423Z,80.14
2018-09-23T12:15:59.286Z,80.27
2018-09-23T12:18:28.138Z,80.07
2018-09-23T12:20:56.963Z,79.98
2018-09-23T12:23:25.841Z,79.99
2018-09-23T12:25:54.687Z,79.84
2018-09-23T12:28:23.725Z,80.20
2018-09-23T12:30:52.536Z,80.38
2018-09-23T12:33:21.476Z,79.98
2018-09-23T12:35:50.224Z,79.87
2018-09-23T12:38:19.076Z,80.26
2018-09-23T12:40:47.916Z,80.06
2018-09-23T12:43:16.769Z,79.70
2018-09-23T12:45:45.628Z,79.73
2018-09-23T12:48:14.456Z,79.41
2018-09-23T12:50:43.303Z,79.83
2018-09-23T12:53:12.217Z,79.75
2018-09-23T12:55:40.994Z,79.67
2018-09-23T12:58:09.836Z,79.74
2018-09-23T13:00:38.697Z,79.82
2018-09-23T13:03:07.545Z,78.72
2018-09-23T13:05:36.470Z,79.75
2018-09-23T13:08:05.256Z,80.15
2018-09-23T13:10:34.095Z,79.16
2018-09-23T13:13:03.025Z,80.23
2018-09-23T13:15:31.871Z,80.04
2018-09-23T13:18:00.838Z,79.92
2018-09-23T13:20:29.554Z,79.63
2018-09-23T13:22:58.439Z,79.83
2018-09-23T13:25:27.271Z,79.94
2018-09-23T13:27:56.119Z,79.64
2018-09-23T13:30:24.943Z,79.45
2018-09-23T13:32:53.759Z,79.41
2018-09-23T13:35:22.638Z,79.23
2018-09-23T13:37:51.486Z,79.27
2018-09-23T13:40:20.337Z,80.07
2018-09-23T13:42:49.189Z,78.74
2018-09-23T13:45:18.034Z,80.00
2018-09-23T13:47:46.858Z,79.42
2018-09-23T13:50:15.710Z,79.26
2018-09-23T13:52:44.525Z,79.04
2018-09-23T13:55:13.372Z,78.84
2018-09-23T13:57:42.218Z,78.74
2018-09-23T14:00:11.060Z,78.98
2018-09-23T14:02:39.889Z,78.68
2018-09-23T14:05:08.780Z,78.97
2018-09-23T14:07:37.620Z,78.53
2018-09-23T14:10:06.538Z,78.43
2018-09-23T14:12:35.345Z,78.41
2018-09-23T14:15:04.228Z,78.53
2018-09-23T14:17:33.105Z,77.43
2018-09-23T14:20:01.949Z,78.19
2018-09-23T14:22:30.791Z,78.74
2018-09-23T14:24:59.652Z,79.00
2018-09-23T14:27:28.499Z,77.71
2018-09-23T14:29:57.380Z,79.05
2018-09-23T14:32:26.278Z,78.42
2018-09-23T14:34:55.144Z,77.37
2018-09-23T14:37:23.963Z,76.82
2018-09-23T14:39:52.785Z,76.99
2018-09-23T14:42:21.634Z,76.59
2018-09-23T14:44:50.459Z,76.43
2018-09-23T14:47:19.304Z,76.82
2018-09-23T14:49:48.113Z,77.38
2018-09-23T14:52:16.974Z,77.45
2018-09-23T14:54:46.005Z,77.84
2018-09-23T14:57:14.657Z,77.21
2018-09-23T14:59:43.511Z,77.10
2018-09-23T15:02:12.325Z,77.04
2018-09-23T15:04:41.278Z,76.75
2018-09-23T15:07:10.102Z,76.95
2018-09-23T15:09:38.912Z,76.04
2018-09-23T15:12:07.849Z,75.77
2018-09-23T15:14:36.679Z,75.67
2018-09-23T15:17:05.507Z,76.06
2018-09-23T15:19:34.360Z,75.47
2018-09-23T15:22:03.174Z,74.89
2018-09-23T15:24:32.025Z,74.65
2018-09-23T15:27:00.858Z,74.02
2018-09-23T15:29:29.727Z,74.75
2018-09-23T15:31:58.604Z,74.90
2018-09-23T15:34:27.384Z,74.83
2018-09-23T15:36:56.235Z,75.11
2018-09-23T15:39:25.124Z,74.98
2018-09-23T15:41:53.975Z,74.85
2018-09-23T15:44:22.846Z,74.22
2018-09-23T15:46:51.665Z,74.79
2018-09-23T15:49:20.566Z,75.30
2018-09-23T15:51:49.466Z,75.17
2018-09-23T15:54:18.282Z,75.14
2018-09-23T15:56:47.139Z,75.15
2018-09-23T15:59:15.985Z,75.37
2018-09-23T16:01:44.820Z,75.49
2018-09-23T16:04:13.685Z,76.80
2018-09-23T16:06:42.507Z,76.13
2018-09-23T16:09:11.350Z,76.05
2018-09-23T16:11:40.221Z,76.05
2018-09-23T16:14:09.145Z,76.11
2018-09-23T16:16:38.082Z,76.00
2018-09-23T16:19:07.003Z,75.41
2018-09-23T16:21:35.806Z,76.78
2018-09-23T16:24:04.679Z,76.75
2018-09-23T16:26:33.637Z,76.55
2018-09-23T16:29:02.505Z,76.86
2018-09-23T16:31:31.351Z,76.81
2018-09-23T16:34:00.261Z,77.22
2018-09-23T16:36:29.078Z,77.31
2018-09-23T16:38:57.961Z,77.53
2018-09-23T16:41:26.967Z,77.50
2018-09-23T16:43:55.835Z,76.80
2018-09-23T16:46:24.735Z,77.64
2018-09-23T16:48:53.578Z,77.46
2018-09-23T16:51:22.425Z,77.60
2018-09-23T16:53:51.293Z,77.26
2018-09-23T16:56:20.099Z,77.33
2018-09-23T16:58:48.959Z,77.40
2018-09-23T17:01:17.782Z,77.32
2018-09-23T17:03:46.775Z,77.41
2018-09-23T17:06:15.573Z,77.86
2018-09-23T17:08:44.376Z,77.65
2018-09-23T17:11:13.307Z,77.88
2018-09-23T17:13:42.138Z,77.71
2018-09-23T17:16:11.022Z,77.92
2018-09-23T17:18:39.862Z,78.16
2018-09-23T17:21:08.691Z,77.60
2018-09-23T17:23:37.542Z,78.29
2018-09-23T17:26:06.368Z,77.24
2018-09-23T17:28:35.236Z,78.41
2018-09-23T17:31:04.049Z,79.02
2018-09-23T17:33:32.899Z,78.53
2018-09-23T17:36:01.702Z,79.15
2018-09-23T17:38:30.608Z,80.05
2018-09-23T17:40:59.490Z,80.34
2018-09-23T17:43:28.276Z,80.66
2018-09-23T17:45:57.128Z,80.92
2018-09-23T17:48:25.953Z,80.86
2018-09-23T17:50:54.762Z,81.04
2018-09-23T17:53:23.607Z,81.19
2018-09-23T17:55:52.448Z,80.99
2018-09-23T17:58:21.313Z,81.03
2018-09-23T18:00:50.147Z,81.24
2018-09-23T18:03:18.981Z,81.20
2018-09-23T18:05:47.805Z,81.38
2018-09-23T18:08:16.700Z,81.54
2018-09-23T18:10:45.535Z,81.55
2018-09-23T18:13:14.387Z,81.60
2018-09-23T18:15:43.196Z,81.62
2018-09-23T18:18:12.117Z,81.54
2018-09-23T18:20:40.963Z,81.78
2018-09-23T18:23:09.806Z,81.67
2018-09-23T18:25:38.659Z,81.40
2018-09-23T18:28:07.521Z,81.34
2018-09-23T18:30:36.344Z,81.78
2018-09-23T18:33:05.167Z,81.99
2018-09-23T18:35:33.991Z,81.94
2018-09-23T18:38:02.827Z,82.17
2018-09-23T18:40:31.664Z,80.65
2018-09-23T18:43:00.696Z,81.36
2018-09-23T18:45:29.551Z,81.80
2018-09-23T18:47:58.575Z,81.97
2018-09-23T18:50:27.661Z,81.12
2018-09-23T18:53:14.070Z,81.53
2018-09-23T18:55:44.407Z,81.43
2018-09-23T18:58:13.228Z,81.72
2018-09-23T19:00:42.102Z,81.81
2018-09-23T19:03:10.997Z,81.58
2018-09-23T19:05:39.772Z,81.99
2018-09-23T19:08:08.877Z,82.08
2018-09-23T19:10:37.723Z,82.15
2018-09-23T19:13:24.209Z,82.17
2018-09-23T19:16:11.007Z,81.96
2018-09-23T19:18:39.827Z,81.71
2018-09-23T19:21:08.663Z,81.18
2018-09-23T19:23:37.519Z,82.30
2018-09-23T19:26:06.524Z,82.51
2018-09-23T19:28:35.386Z,82.83
2018-09-23T19:31:04.192Z,82.92
2018-09-23T19:33:33.064Z,82.73
2018-09-23T19:36:01.867Z,82.56
2018-09-23T19:38:30.691Z,82.69
2018-09-23T19:40:59.531Z,82.83
2018-09-23T19:43:28.623Z,82.90
2018-09-23T19:45:57.478Z,82.49
2018-09-23T19:48:26.323Z,82.70
2018-09-23T19:50:55.161Z,82.55
2018-09-23T19:53:24.009Z,82.68
2018-09-23T19:55:52.807Z,82.46
2018-09-23T19:58:21.748Z,82.35
2018-09-23T20:00:50.571Z,82.21
2018-09-23T20:03:19.384Z,82.44
2018-09-23T20:05:48.228Z,82.54
2018-09-23T20:08:17.089Z,82.45
2018-09-23T20:10:45.908Z,82.74
2018-09-23T20:13:14.727Z,82.91
2018-09-23T20:15:43.676Z,81.50
2018-09-23T20:18:12.391Z,82.03
2018-09-23T20:20:41.216Z,79.93
2018-09-23T20:23:10.048Z,80.86
2018-09-23T20:25:38.878Z,80.81
2018-09-23T20:28:07.730Z,78.88
2018-09-23T20:30:36.554Z,80.16
2018-09-23T20:33:05.416Z,80.51
2018-09-23T20:35:34.247Z,80.85
2018-09-23T20:38:03.058Z,80.82
2018-09-23T20:40:31.884Z,80.71
2018-09-23T20:43:00.695Z,80.52
2018-09-23T20:45:29.556Z,80.72
2018-09-23T20:47:58.376Z,80.78
2018-09-23T20:50:27.206Z,80.89
2018-09-23T20:52:56.149Z,81.21
2018-09-23T20:55:24.972Z,81.03
2018-09-23T20:57:53.842Z,80.98
2018-09-23T21:00:22.648Z,80.79
2018-09-23T21:02:51.474Z,80.96
2018-09-23T21:05:20.340Z,80.98
2018-09-23T21:07:49.168Z,80.69
2018-09-23T21:10:18.014Z,80.17
2018-09-23T21:12:46.802Z,79.00
2018-09-23T21:15:15.679Z,80.23
2018-09-23T21:17:44.461Z,80.27
2018-09-23T21:20:13.276Z,78.88
2018-09-23T21:22:42.175Z,80.17
2018-09-23T21:25:10.931Z,80.55
2018-09-23T21:27:39.764Z,80.85
2018-09-23T21:30:08.603Z,80.76
2018-09-23T21:32:37.447Z,80.27
2018-09-23T21:35:06.275Z,80.03
2018-09-23T21:37:35.116Z,79.27
2018-09-23T21:40:03.955Z,80.22
2018-09-23T21:42:32.792Z,80.71
2018-09-23T21:45:01.646Z,81.03
2018-09-23T21:47:30.557Z,81.18
2018-09-23T21:49:59.376Z,81.42
2018-09-23T21:52:28.211Z,81.73
2018-09-23T21:54:57.043Z,82.04
2018-09-23T21:57:25.896Z,81.92
2018-09-23T21:59:54.762Z,81.82
2018-09-23T22:02:23.611Z,82.10
2018-09-23T22:04:52.450Z,82.26
2018-09-23T22:07:21.276Z,82.04
2018-09-23T22:09:50.113Z,82.49
2018-09-23T22:12:18.971Z,82.40
2018-09-23T22:14:47.822Z,82.42
2018-09-23T22:17:16.646Z,82.42
2018-09-23T22:19:45.503Z,82.75
2018-09-23T22:22:14.331Z,82.98
2018-09-23T22:24:43.176Z,82.91
2018-09-23T22:27:12.024Z,82.51
2018-09-23T22:29:40.839Z,82.51
2018-09-23T22:32:09.697Z,82.70
2018-09-23T22:34:38.543Z,82.55
2018-09-23T22:37:07.396Z,82.64
2018-09-23T22:39:36.216Z,82.68
2018-09-23T22:42:05.059Z,82.72
2018-09-23T22:44:33.906Z,82.61
2018-09-23T22:47:02.751Z,82.91
2018-09-23T22:49:31.562Z,82.80
2018-09-23T22:52:00.396Z,82.95
2018-09-23T22:54:29.236Z,82.85
2018-09-23T22:56:58.109Z,82.87
2018-09-23T22:59:26.927Z,82.46
2018-09-23T23:01:55.812Z,81.29
2018-09-23T23:04:24.593Z,82.20
2018-09-23T23:06:53.431Z,82.12
2018-09-23T23:09:22.262Z,82.09
2018-09-23T23:11:51.076Z,82.12
2018-09-23T23:14:19.906Z,82.04
2018-09-23T23:16:48.751Z,82.18
2018-09-23T23:19:17.576Z,82.14
2018-09-23T23:21:46.423Z,82.19
2018-09-23T23:24:15.263Z,81.96
2018-09-23T23:26:44.093Z,81.51
2018-09-23T23:29:12.924Z,81.45
2018-09-23T23:31:41.783Z,81.25
2018-09-23T23:34:10.637Z,81.68
2018-09-23T23:36:39.457Z,81.75
2018-09-23T23:39:09.391Z,82.01
2018-09-23T23:41:38.297Z,81.86
2018-09-23T23:44:07.487Z,81.98
2018-09-23T23:46:36.720Z,82.13
2018-09-23T23:49:05.857Z,82.00
2018-09-23T23:51:34.654Z,81.97
2018-09-23T23:54:03.492Z,82.01
2018-09-23T23:56:32.326Z,82.13
2018-09-23T23:59:01.163Z,82.19
